createdAt,value
2023-04-05T00:01:14.471Z,44.44
2023-04-05T00:03:41.624Z,44.68
2023-04-05T00:06:08.659Z,45.01
2023-04-05T00:08:35.388Z,45.52
2023-04-05T00:11:02.112Z,45.57
2023-04-05T00:13:28.900Z,45.97
2023-04-05T00:15:57.740Z,45.92
2023-04-05T00:18:25.644Z,45.87
2023-04-05T00:20:53.134Z,46.18
2023-04-05T00:23:20.304Z,46.44
2023-04-05T00:25:47.484Z,46.58
2023-04-05T00:28:14.160Z,46.91
2023-04-05T00:30:41.019Z,47.33
2023-04-05T00:33:09.171Z,47.75
2023-04-05T00:35:35.962Z,48.08
2023-04-05T00:38:02.617Z,48.44
2023-04-05T00:40:29.295Z,48.69
2023-04-05T00:42:56.022Z,48.93
2023-04-05T00:45:22.843Z,49.35
2023-04-05T00:47:49.966Z,49.25
2023-04-05T00:50:18.148Z,50.10
2023-04-05T00:52:45.960Z,50.16
2023-04-05T00:55:13.167Z,50.52
2023-04-05T00:57:40.164Z,50.71
2023-04-05T01:00:08.313Z,50.94
2023-04-05T01:02:41.008Z,50.86
2023-04-05T01:05:14.407Z,51.17
2023-04-05T01:07:49.028Z,51.31
2023-04-05T01:10:18.050Z,51.26
2023-04-05T01:12:45.557Z,51.66
2023-04-05T01:15:12.178Z,51.81
2023-04-05T01:17:38.938Z,52.28
2023-04-05T01:20:09.412Z,52.78
2023-04-05T01:23:12.456Z,53.55
2023-04-05T01:25:57.516Z,54.56
2023-04-05T01:28:44.633Z,54.68
2023-04-05T01:31:18.677Z,55.22
2023-04-05T01:33:56.137Z,55.58
2023-04-05T01:36:30.682Z,55.88
2023-04-05T01:38:58.887Z,56.24
2023-04-05T01:41:25.688Z,56.03
2023-04-05T01:43:52.298Z,56.68
2023-04-05T01:46:20.473Z,56.38
2023-04-05T01:48:47.109Z,56.23
2023-04-05T01:51:14.027Z,57.00
2023-04-05T01:53:40.857Z,57.62
2023-04-05T01:56:07.674Z,58.87
2023-04-05T01:58:34.343Z,59.63
2023-04-05T02:01:01.005Z,59.85
2023-04-05T02:03:29.044Z,60.59
2023-04-05T02:05:55.731Z,60.91
2023-04-05T02:08:23.469Z,61.88
2023-04-05T02:10:52.489Z,62.44
2023-04-05T02:13:19.130Z,61.99
2023-04-05T02:15:48.379Z,62.08
2023-04-05T02:18:15.035Z,62.62
2023-04-05T02:20:43.183Z,62.63
2023-04-05T02:23:09.912Z,63.02
2023-04-05T02:25:36.595Z,63.12
2023-04-05T02:28:03.278Z,63.26
2023-04-05T02:30:29.958Z,63.88
2023-04-05T02:32:56.573Z,64.14
2023-04-05T02:35:23.564Z,64.71
2023-04-05T02:37:51.913Z,64.41
2023-04-05T02:40:18.664Z,64.41
2023-04-05T02:42:45.416Z,64.34
2023-04-05T02:45:12.149Z,64.77
2023-04-05T02:47:38.800Z,64.75
2023-04-05T02:50:06.679Z,65.48
2023-04-05T02:52:33.627Z,65.64
2023-04-05T02:55:01.598Z,65.88
2023-04-05T02:57:28.344Z,66.65
2023-04-05T02:59:55.186Z,66.83
2023-04-05T03:02:21.965Z,67.16
2023-04-05T03:04:48.663Z,67.59
2023-04-05T03:07:15.373Z,67.47
2023-04-05T03:09:42.078Z,67.91
2023-04-05T03:12:10.154Z,67.30
2023-04-05T03:14:36.840Z,67.55
2023-04-05T03:17:03.629Z,67.26
2023-04-05T03:19:30.484Z,67.76
2023-04-05T03:21:57.066Z,68.03
2023-04-05T03:24:23.852Z,67.73
2023-04-05T03:26:50.894Z,67.82
2023-04-05T03:29:18.984Z,67.71
2023-04-05T03:31:45.780Z,67.54
2023-04-05T03:34:12.482Z,67.21
2023-04-05T03:36:39.179Z,67.29
2023-04-05T03:39:05.830Z,67.85
2023-04-05T03:41:32.478Z,67.55
2023-04-05T03:43:59.449Z,68.11
2023-04-05T03:46:27.521Z,68.37
2023-04-05T03:48:54.321Z,68.49
2023-04-05T03:51:21.061Z,69.22
2023-04-05T03:53:47.771Z,68.54
2023-04-05T03:56:14.516Z,68.53
2023-04-05T03:58:41.296Z,68.43
2023-04-05T04:01:08.002Z,68.08
2023-04-05T04:03:36.087Z,68.35
2023-04-05T04:06:02.897Z,68.27
2023-04-05T04:08:29.624Z,67.81
2023-04-05T04:10:56.547Z,67.91
2023-04-05T04:13:23.352Z,68.29
2023-04-05T04:15:50.173Z,68.39
2023-04-05T04:18:17.119Z,68.00
2023-04-05T04:20:45.120Z,68.37
2023-04-05T04:23:11.813Z,68.34
2023-04-05T04:25:39.053Z,68.87
2023-04-05T04:28:06.479Z,69.03
2023-04-05T04:30:33.544Z,68.81
2023-04-05T04:33:00.553Z,69.37
2023-04-05T04:35:28.448Z,69.56
2023-04-05T04:37:58.081Z,69.83
2023-04-05T04:40:27.712Z,70.26
2023-04-05T04:42:55.106Z,70.39
2023-04-05T04:45:21.885Z,70.33
2023-04-05T04:47:49.455Z,70.71
2023-04-05T04:50:16.640Z,70.75
2023-04-05T04:52:43.442Z,70.50
2023-04-05T04:55:12.191Z,70.67
2023-04-05T04:57:38.836Z,70.92
2023-04-05T05:00:07.086Z,70.45
2023-04-05T05:02:33.772Z,70.75
2023-04-05T05:05:01.558Z,70.90
2023-04-05T05:07:28.950Z,71.11
2023-04-05T05:09:55.551Z,71.07
2023-04-05T05:12:23.928Z,72.30
2023-04-05T05:14:50.669Z,73.87
2023-04-05T05:17:17.316Z,74.08
2023-04-05T05:19:46.603Z,74.09
2023-04-05T05:22:13.201Z,74.93
2023-04-05T05:24:39.863Z,75.31
2023-04-05T05:27:06.520Z,76.12
2023-04-05T05:29:34.551Z,76.54
2023-04-05T05:32:01.231Z,76.97
2023-04-05T05:34:27.924Z,77.17
2023-04-05T05:36:55.249Z,76.80
2023-04-05T05:39:22.105Z,76.37
2023-04-05T05:41:48.823Z,75.62
2023-04-05T05:44:15.573Z,75.33
2023-04-05T05:46:43.710Z,74.59
2023-04-05T05:49:10.316Z,74.25
2023-04-05T05:51:36.944Z,74.09
2023-04-05T05:54:03.690Z,74.36
2023-04-05T05:56:30.309Z,73.97
2023-04-05T05:58:57.101Z,75.37
2023-04-05T06:01:23.749Z,75.78
2023-04-05T06:03:52.047Z,75.79
2023-04-05T06:06:18.762Z,75.62
2023-04-05T06:08:45.491Z,75.73
2023-04-05T06:11:17.813Z,76.62
2023-04-05T06:13:44.431Z,76.87
2023-04-05T06:16:11.174Z,77.19
2023-04-05T06:18:37.836Z,77.40
2023-04-05T06:21:06.046Z,76.96
2023-04-05T06:23:32.883Z,77.70
2023-04-05T06:25:59.604Z,77.68
2023-04-05T06:28:26.353Z,78.67
2023-04-05T06:30:54.106Z,78.70
2023-04-05T06:33:20.853Z,78.37
2023-04-05T06:35:47.566Z,77.63
2023-04-05T06:38:15.629Z,77.74
2023-04-05T06:40:42.496Z,77.38
2023-04-05T06:43:09.487Z,78.25
2023-04-05T06:45:36.247Z,77.41
2023-04-05T06:48:03.346Z,77.08
2023-04-05T06:50:30.116Z,77.55
2023-04-05T06:52:56.883Z,76.87
2023-04-05T06:55:24.922Z,76.82
2023-04-05T06:57:51.644Z,76.88
2023-04-05T07:00:18.786Z,77.05
2023-04-05T07:02:45.466Z,76.99
2023-04-05T07:05:12.199Z,78.55
2023-04-05T07:07:40.604Z,79.40
2023-04-05T07:10:08.280Z,79.67
2023-04-05T07:12:40.511Z,81.01
2023-04-05T07:15:08.366Z,81.11
2023-04-05T07:17:35.091Z,81.63
2023-04-05T07:20:02.295Z,81.84
2023-04-05T07:22:28.890Z,82.71
2023-04-05T07:24:55.690Z,82.20
2023-04-05T07:27:23.382Z,82.65
2023-04-05T07:29:51.450Z,81.79
2023-04-05T07:32:18.174Z,82.31
2023-04-05T07:34:44.961Z,81.78
2023-04-05T07:37:11.565Z,81.61
2023-04-05T07:39:38.173Z,81.55
2023-04-05T07:42:05.558Z,82.09
2023-04-05T07:44:32.216Z,80.94
2023-04-05T07:47:00.313Z,80.17
2023-04-05T07:49:27.495Z,80.03
2023-04-05T07:51:55.217Z,80.87
2023-04-05T07:54:21.965Z,80.71
2023-04-05T07:56:48.654Z,80.71
2023-04-05T07:59:15.394Z,80.70
2023-04-05T08:01:42.107Z,80.19
2023-04-05T08:04:10.211Z,80.61
2023-04-05T08:06:37.049Z,80.40
2023-04-05T08:09:03.852Z,80.80
2023-04-05T08:11:30.562Z,81.48
2023-04-05T08:13:57.376Z,81.31
2023-04-05T08:16:24.028Z,81.33
2023-04-05T08:18:50.701Z,81.01
2023-04-05T08:21:18.799Z,81.97
2023-04-05T08:23:45.618Z,82.32
2023-04-05T08:26:12.368Z,82.39
2023-04-05T08:28:39.144Z,81.58
2023-04-05T08:31:05.967Z,83.07
2023-04-05T08:33:32.691Z,84.54
2023-04-05T08:36:04.553Z,86.00
2023-04-05T08:38:32.683Z,87.42
2023-04-05T08:41:08.417Z,87.47
2023-04-05T08:43:45.736Z,88.76
2023-04-05T08:46:15.038Z,90.51
2023-04-05T08:48:42.092Z,91.15
2023-04-05T08:51:09.086Z,90.46
2023-04-05T08:53:37.313Z,92.31
2023-04-05T08:56:04.390Z,93.06
2023-04-05T08:58:31.983Z,92.38
2023-04-05T09:00:59.379Z,92.45
2023-04-05T09:03:31.533Z,92.68
2023-04-05T09:05:59.228Z,92.43
2023-04-05T09:08:26.136Z,92.68
2023-04-05T09:10:54.246Z,93.49
2023-04-05T09:13:20.880Z,93.37
2023-04-05T09:15:48.070Z,92.94
2023-04-05T09:18:25.447Z,94.34
2023-04-05T09:20:56.991Z,94.27
2023-04-05T09:23:23.635Z,93.72
2023-04-05T09:25:50.233Z,93.83
2023-04-05T09:28:18.272Z,94.26
2023-04-05T09:30:46.683Z,94.30
2023-04-05T09:33:18.911Z,94.22
2023-04-05T09:35:49.698Z,93.69
2023-04-05T09:38:16.382Z,94.24
2023-04-05T09:40:44.693Z,94.10
2023-04-05T09:43:12.309Z,94.52
2023-04-05T09:45:41.431Z,94.06
2023-04-05T09:48:09.170Z,94.22
2023-04-05T09:50:36.157Z,96.09
2023-04-05T09:53:08.056Z,95.77
2023-04-05T09:55:35.034Z,96.21
2023-04-05T09:58:02.357Z,96.32
2023-04-05T10:00:30.123Z,96.57
2023-04-05T10:02:58.320Z,96.60
2023-04-05T10:05:27.218Z,95.59
2023-04-05T10:07:55.747Z,96.05
2023-04-05T10:10:23.588Z,96.06
2023-04-05T10:12:53.466Z,95.28
2023-04-05T10:15:20.360Z,95.60
2023-04-05T10:17:50.457Z,95.04
2023-04-05T10:20:20.365Z,94.78
2023-04-05T10:23:07.412Z,93.56
2023-04-05T10:25:46.810Z,92.26
2023-04-05T10:28:23.032Z,92.26
2023-04-05T10:30:52.165Z,91.94
2023-04-05T10:33:22.102Z,91.82
2023-04-05T10:36:00.728Z,91.39
2023-04-05T10:38:28.759Z,90.92
2023-04-05T10:41:02.211Z,91.40
2023-04-05T10:43:31.880Z,91.96
2023-04-05T10:46:00.209Z,91.66
2023-04-05T10:48:37.271Z,89.34
2023-04-05T10:51:06.112Z,89.53
2023-04-05T10:53:34.133Z,87.95
2023-04-05T10:56:02.040Z,88.50
2023-04-05T10:58:30.319Z,89.94
2023-04-05T11:00:58.450Z,88.78
2023-04-05T11:03:50.699Z,89.41
2023-04-05T11:06:31.863Z,90.89
2023-04-05T11:09:00.434Z,90.87
2023-04-05T11:11:27.235Z,91.33
2023-04-05T11:13:55.102Z,90.14
2023-04-05T11:16:38.189Z,90.94
2023-04-05T11:19:05.018Z,91.84
2023-04-05T11:21:34.925Z,92.72
2023-04-05T11:24:06.682Z,92.47
2023-04-05T11:26:52.854Z,93.13
2023-04-05T11:29:19.863Z,93.73
2023-04-05T11:31:59.779Z,93.99
2023-04-05T11:34:26.881Z,94.09
2023-04-05T11:36:54.971Z,93.40
2023-04-05T11:39:25.575Z,92.84
2023-04-05T11:41:58.145Z,93.14
2023-04-05T11:44:24.867Z,93.86
2023-04-05T11:46:51.732Z,93.97
2023-04-05T11:49:21.291Z,94.63
2023-04-05T11:51:50.268Z,94.61
2023-04-05T11:54:30.172Z,94.73
2023-04-05T11:56:56.950Z,93.54
2023-04-05T11:59:31.463Z,93.89
2023-04-05T12:01:59.495Z,92.27
2023-04-05T12:04:26.147Z,91.93
2023-04-05T12:07:17.587Z,92.85
2023-04-05T12:09:59.984Z,93.20
2023-04-05T12:12:26.746Z,93.24
2023-04-05T12:14:58.919Z,93.01
2023-04-05T12:17:42.439Z,91.45
2023-04-05T12:20:10.594Z,91.34
2023-04-05T12:22:37.878Z,91.65
2023-04-05T12:25:07.891Z,91.25
2023-04-05T12:27:34.914Z,91.58
2023-04-05T12:30:06.531Z,91.62
2023-04-05T12:32:36.652Z,91.56
2023-04-05T12:35:06.838Z,91.33
2023-04-05T12:37:34.740Z,91.61
2023-04-05T12:40:03.379Z,92.37
2023-04-05T12:42:33.650Z,94.45
2023-04-05T12:45:04.749Z,94.29
2023-04-05T12:47:33.531Z,95.48
2023-04-05T12:50:10.655Z,95.12
2023-04-05T12:52:37.272Z,95.66
2023-04-05T12:55:04.455Z,96.75
2023-04-05T12:57:32.948Z,97.60
2023-04-05T12:59:59.727Z,96.66
2023-04-05T13:02:27.109Z,96.75
2023-04-05T13:04:53.896Z,96.91
2023-04-05T13:07:20.607Z,97.43
2023-04-05T13:09:47.258Z,97.51
2023-04-05T13:12:13.962Z,98.95
2023-04-05T13:14:42.109Z,98.89
2023-04-05T13:17:08.783Z,99.17
2023-04-05T13:19:35.515Z,98.77
2023-04-05T13:22:02.288Z,99.45
2023-04-05T13:24:28.891Z,100.00
2023-04-05T13:26:55.487Z,100.00
2023-04-05T13:29:22.459Z,100.00
2023-04-05T13:31:50.596Z,100.00
2023-04-05T13:34:17.332Z,100.00
2023-04-05T13:36:44.037Z,100.00
2023-04-05T13:39:10.761Z,100.00
2023-04-05T13:41:37.510Z,100.00
2023-04-05T13:44:06.448Z,100.00
2023-04-05T13:46:34.059Z,100.00
2023-04-05T13:49:02.099Z,100.00
2023-04-05T13:51:28.881Z,100.00
2023-04-05T13:53:55.561Z,100.00
2023-04-05T13:56:22.401Z,100.00
2023-04-05T13:58:49.179Z,100.00
2023-04-05T14:01:15.895Z,100.00
2023-04-05T14:03:42.807Z,100.00
2023-04-05T14:06:11.031Z,100.00
2023-04-05T14:08:37.677Z,100.00
2023-04-05T14:11:04.438Z,100.00
2023-04-05T14:13:31.221Z,100.00
2023-04-05T14:15:57.962Z,100.00
2023-04-05T14:18:24.620Z,100.00
2023-04-05T14:20:51.517Z,100.00
2023-04-05T14:23:20.270Z,100.00
2023-04-05T14:25:47.051Z,100.00
2023-04-05T14:28:13.736Z,100.00
2023-04-05T14:30:40.788Z,100.00
2023-04-05T14:33:07.726Z,100.00
2023-04-05T14:35:34.600Z,100.00
2023-04-05T14:38:01.390Z,100.00
2023-04-05T14:40:29.663Z,100.00
2023-04-05T14:42:56.424Z,100.00
2023-04-05T14:45:23.144Z,100.00
2023-04-05T14:47:49.977Z,100.00
2023-04-05T14:50:16.853Z,100.00
2023-04-05T14:52:43.574Z,100.00
2023-04-05T14:55:10.383Z,100.00
2023-04-05T14:57:38.575Z,100.00
2023-04-05T15:00:06.648Z,100.00
2023-04-05T15:02:34.165Z,100.00
2023-04-05T15:05:01.082Z,100.00
2023-04-05T15:07:28.074Z,100.00
2023-04-05T15:09:54.775Z,100.00
2023-04-05T15:12:22.485Z,100.00
2023-04-05T15:14:50.600Z,100.00
2023-04-05T15:17:17.500Z,100.00
2023-04-05T15:19:44.254Z,100.00
2023-04-05T15:22:10.953Z,100.00
2023-04-05T15:24:37.886Z,100.00
2023-04-05T15:27:04.723Z,100.00
2023-04-05T15:29:32.330Z,100.00
2023-04-05T15:32:00.859Z,100.00
2023-04-05T15:34:28.260Z,100.00
2023-04-05T15:36:55.151Z,100.00
2023-04-05T15:39:22.411Z,100.00
2023-04-05T15:41:49.759Z,100.00
2023-04-05T15:44:16.879Z,100.00
2023-04-05T15:46:44.810Z,100.00
2023-04-05T15:49:14.806Z,100.00
2023-04-05T15:51:43.781Z,100.00
2023-04-05T15:54:10.646Z,100.00
2023-04-05T15:56:37.858Z,100.00
2023-04-05T15:59:04.926Z,100.00
2023-04-05T16:01:32.014Z,100.00
2023-04-05T16:03:58.879Z,100.00
2023-04-05T16:06:27.160Z,100.00
2023-04-05T16:08:53.938Z,100.00
2023-04-05T16:11:20.776Z,100.00
2023-04-05T16:13:47.553Z,100.00
2023-04-05T16:16:20.534Z,100.00
2023-04-05T16:18:54.714Z,100.00
2023-04-05T16:21:21.483Z,100.00
2023-04-05T16:23:49.795Z,100.00
2023-04-05T16:26:16.449Z,100.00
2023-04-05T16:28:43.134Z,100.00
2023-04-05T16:31:10.091Z,100.00
2023-04-05T16:33:36.794Z,100.00
2023-04-05T16:36:03.817Z,100.00
2023-04-05T16:38:30.553Z,100.00
2023-04-05T16:40:59.255Z,100.00
2023-04-05T16:43:25.918Z,100.00
2023-04-05T16:45:52.834Z,100.00
2023-04-05T16:48:19.677Z,100.00
2023-04-05T16:50:46.460Z,100.00
2023-04-05T16:53:13.369Z,100.00
2023-04-05T16:55:40.210Z,100.00
2023-04-05T16:58:08.348Z,100.00
2023-04-05T17:00:36.439Z,100.00
2023-04-05T17:03:03.491Z,100.00
2023-04-05T17:05:30.283Z,100.00
2023-04-05T17:07:57.276Z,100.00
2023-04-05T17:10:24.083Z,100.00
2023-04-05T17:12:50.884Z,100.00
2023-04-05T17:15:19.124Z,100.00
2023-04-05T17:17:45.933Z,100.00
2023-04-05T17:20:12.910Z,100.00
2023-04-05T17:22:39.960Z,100.00
2023-04-05T17:25:07.582Z,100.00
2023-04-05T17:27:34.573Z,100.00
2023-04-05T17:30:01.300Z,100.00
2023-04-05T17:32:29.522Z,100.00
2023-04-05T17:34:56.360Z,100.00
2023-04-05T17:37:23.152Z,100.00
2023-04-05T17:39:49.860Z,100.00
2023-04-05T17:42:16.643Z,100.00
2023-04-05T17:44:43.584Z,100.00
2023-04-05T17:47:10.442Z,100.00
2023-04-05T17:49:38.568Z,100.00
2023-04-05T17:52:05.762Z,100.00
2023-04-05T17:54:32.446Z,100.00
2023-04-05T17:56:59.158Z,100.00
2023-04-05T17:59:25.955Z,100.00
2023-04-05T18:01:52.789Z,100.00
2023-04-05T18:04:19.825Z,100.00
2023-04-05T18:06:48.099Z,100.00
2023-04-05T18:09:14.867Z,100.00
2023-04-05T18:11:41.539Z,100.00
2023-04-05T18:14:08.543Z,100.00
2023-04-05T18:16:35.284Z,100.00
2023-04-05T18:19:02.039Z,100.00
2023-04-05T18:21:28.727Z,100.00
2023-04-05T18:23:56.892Z,100.00
2023-04-05T18:26:23.648Z,100.00
2023-04-05T18:28:50.363Z,100.00
2023-04-05T18:31:17.090Z,100.00
2023-04-05T18:33:43.781Z,100.00
2023-04-05T18:36:11.760Z,100.00
2023-04-05T18:38:38.563Z,100.00
2023-04-05T18:41:06.709Z,100.00
2023-04-05T18:43:33.494Z,100.00
2023-04-05T18:46:00.229Z,100.00
2023-04-05T18:48:26.942Z,100.00
2023-04-05T18:50:54.118Z,100.00
2023-04-05T18:53:21.129Z,100.00
2023-04-05T18:55:50.446Z,100.00
2023-04-05T18:58:18.560Z,100.00
2023-04-05T19:00:45.265Z,100.00
2023-04-05T19:03:12.101Z,100.00
2023-04-05T19:05:38.962Z,100.00
2023-04-05T19:08:05.840Z,100.00
2023-04-05T19:10:32.535Z,100.00
2023-04-05T19:12:59.332Z,100.00
2023-04-05T19:15:27.538Z,100.00
2023-04-05T19:17:54.332Z,100.00
2023-04-05T19:20:21.164Z,100.00
2023-04-05T19:22:47.822Z,100.00
2023-04-05T19:25:14.679Z,100.00
2023-04-05T19:27:41.407Z,100.00
2023-04-05T19:30:09.431Z,100.00
2023-04-05T19:32:37.678Z,100.00
2023-04-05T19:35:06.733Z,100.00
2023-04-05T19:37:34.144Z,100.00
2023-04-05T19:40:01.534Z,100.00
2023-04-05T19:42:28.272Z,100.00
2023-04-05T19:44:55.301Z,100.00
2023-04-05T19:47:23.551Z,100.00
2023-04-05T19:49:53.253Z,100.00
2023-04-05T19:52:39.432Z,100.00
2023-04-05T19:55:26.966Z,100.00
2023-04-05T19:57:54.458Z,100.00
2023-04-05T20:00:36.735Z,100.00
2023-04-05T20:03:18.414Z,100.00
2023-04-05T20:06:13.879Z,100.00
2023-04-05T20:08:42.457Z,100.00
2023-04-05T20:11:13.100Z,100.00
2023-04-05T20:13:43.371Z,100.00
2023-04-05T20:16:12.142Z,100.00
2023-04-05T20:18:38.991Z,100.00
2023-04-05T20:21:06.173Z,100.00
2023-04-05T20:23:38.525Z,100.00
2023-04-05T20:26:06.771Z,100.00
2023-04-05T20:28:37.472Z,100.00
2023-04-05T20:31:07.076Z,100.00
2023-04-05T20:33:39.972Z,100.00
2023-04-05T20:36:06.872Z,100.00
2023-04-05T20:38:35.015Z,100.00
2023-04-05T20:41:01.679Z,100.00
2023-04-05T20:43:29.902Z,100.00
2023-04-05T20:45:58.973Z,100.00
2023-04-05T20:48:25.769Z,100.00
2023-04-05T20:50:52.530Z,100.00
2023-04-05T20:53:19.296Z,100.00
2023-04-05T20:55:47.501Z,100.00
2023-04-05T20:58:14.371Z,100.00
2023-04-05T21:00:41.111Z,100.00
2023-04-05T21:03:08.995Z,100.00
2023-04-05T21:05:35.866Z,100.00
2023-04-05T21:08:02.635Z,100.00
2023-04-05T21:10:29.427Z,100.00
2023-04-05T21:12:57.581Z,100.00
2023-04-05T21:15:24.731Z,100.00
2023-04-05T21:17:51.415Z,100.00
2023-04-05T21:20:18.060Z,100.00
2023-04-05T21:22:44.860Z,100.00
2023-04-05T21:25:11.609Z,100.00
2023-04-05T21:27:38.490Z,100.00
2023-04-05T21:30:08.653Z,100.00
2023-04-05T21:32:35.477Z,100.00
2023-04-05T21:35:02.175Z,100.00
2023-04-05T21:37:28.933Z,100.00
2023-04-05T21:39:55.707Z,100.00
2023-04-05T21:42:22.800Z,100.00
2023-04-05T21:44:49.639Z,100.00
2023-04-05T21:47:17.761Z,100.00
2023-04-05T21:49:45.524Z,100.00
2023-04-05T21:52:12.224Z,100.00
2023-04-05T21:54:38.939Z,100.00
2023-04-05T21:57:06.345Z,100.00
2023-04-05T21:59:33.165Z,100.00
2023-04-05T22:02:00.618Z,100.00
2023-04-05T22:04:28.740Z,100.00
2023-04-05T22:06:55.654Z,100.00
2023-04-05T22:09:22.420Z,100.00
2023-04-05T22:11:49.961Z,100.00
2023-04-05T22:14:16.774Z,100.00
2023-04-05T22:16:43.547Z,100.00
2023-04-05T22:19:10.633Z,100.00
2023-04-05T22:21:38.862Z,100.00
2023-04-05T22:24:06.017Z,100.00
2023-04-05T22:26:32.885Z,100.00
2023-04-05T22:28:59.687Z,100.00
2023-04-05T22:31:26.463Z,100.00
2023-04-05T22:33:53.409Z,100.00
2023-04-05T22:36:20.415Z,100.00
2023-04-05T22:38:48.495Z,100.00
2023-04-05T22:41:15.240Z,100.00
2023-04-05T22:43:41.937Z,100.00
2023-04-05T22:46:08.835Z,100.00
2023-04-05T22:48:35.593Z,100.00
2023-04-05T22:51:02.403Z,100.00
2023-04-05T22:53:29.157Z,100.00
2023-04-05T22:55:57.646Z,100.00
2023-04-05T22:58:24.442Z,100.00
2023-04-05T23:00:51.422Z,100.00
2023-04-05T23:03:18.126Z,100.00
2023-04-05T23:05:45.934Z,100.00
2023-04-05T23:08:12.707Z,100.00
2023-04-05T23:10:39.374Z,100.00
2023-04-05T23:13:07.713Z,100.00
2023-04-05T23:15:34.520Z,100.00
2023-04-05T23:18:01.401Z,100.00
2023-04-05T23:20:28.154Z,100.00
2023-04-05T23:22:54.881Z,100.00
2023-04-05T23:25:21.835Z,100.00
2023-04-05T23:27:48.605Z,100.00
2023-04-05T23:30:16.773Z,100.00
2023-04-05T23:32:43.570Z,100.00
2023-04-05T23:35:10.378Z,100.00
2023-04-05T23:37:37.090Z,100.00
2023-04-05T23:40:04.588Z,100.00
2023-04-05T23:42:31.297Z,100.00
2023-04-05T23:44:58.015Z,100.00
2023-04-05T23:47:26.274Z,100.00
2023-04-05T23:49:53.032Z,100.00
2023-04-05T23:52:19.738Z,100.00
2023-04-05T23:54:46.442Z,100.00
2023-04-05T23:57:13.320Z,100.00
2023-04-05T23:59:40.132Z,100.00
